createdAt,value
2022-10-26T00:01:10.840Z,2.70
2022-10-26T00:03:39.308Z,2.75
2022-10-26T00:06:12.739Z,3.22
2022-10-26T00:08:40.483Z,3.20
2022-10-26T00:11:08.559Z,2.97
2022-10-26T00:13:36.784Z,3.20
2022-10-26T00:16:12.121Z,3.38
2022-10-26T00:18:39.681Z,2.90
2022-10-26T00:21:08.134Z,3.10
2022-10-26T00:23:35.724Z,2.88
2022-10-26T00:26:03.244Z,3.05
2022-10-26T00:28:30.741Z,3.00
2022-10-26T00:31:02.316Z,2.80
2022-10-26T00:33:30.362Z,3.40
2022-10-26T00:35:57.808Z,3.00
2022-10-26T00:38:25.099Z,2.80
2022-10-26T00:40:52.359Z,2.60
2022-10-26T00:43:22.299Z,2.80
2022-10-26T00:45:55.113Z,2.88
2022-10-26T00:48:33.923Z,3.03
2022-10-26T00:51:06.014Z,3.03
2022-10-26T00:53:33.819Z,2.85
2022-10-26T00:56:02.073Z,2.83
2022-10-26T00:58:29.722Z,3.17
2022-10-26T01:00:57.066Z,3.20
2022-10-26T01:03:28.341Z,3.10
2022-10-26T01:05:58.161Z,3.10
2022-10-26T01:08:28.363Z,3.33
2022-10-26T01:10:58.429Z,3.40
2022-10-26T01:13:30.578Z,3.03
2022-10-26T01:16:27.023Z,3.70
2022-10-26T01:19:11.113Z,3.47
2022-10-26T01:22:06.949Z,3.65
2022-10-26T01:24:46.080Z,3.50
2022-10-26T01:27:39.687Z,3.53
2022-10-26T01:30:28.112Z,3.72
2022-10-26T01:33:20.242Z,3.30
2022-10-26T01:36:06.511Z,3.17
2022-10-26T01:38:33.689Z,3.42
2022-10-26T01:41:27.300Z,3.50
2022-10-26T01:44:03.024Z,3.38
2022-10-26T01:46:37.032Z,3.42
2022-10-26T01:49:08.361Z,3.67
2022-10-26T01:51:36.074Z,3.50
2022-10-26T01:54:03.309Z,3.60
2022-10-26T01:56:35.067Z,3.10
2022-10-26T01:59:11.385Z,3.60
2022-10-26T02:01:52.673Z,3.40
2022-10-26T02:04:40.642Z,3.22
2022-10-26T02:07:32.346Z,3.33
2022-10-26T02:10:22.163Z,3.42
2022-10-26T02:13:16.115Z,3.70
2022-10-26T02:15:59.955Z,3.17
2022-10-26T02:18:31.478Z,3.38
2022-10-26T02:21:22.939Z,3.67
2022-10-26T02:23:53.539Z,3.38
2022-10-26T02:28:53.855Z,3.60
2022-10-26T02:31:22.126Z,3.30
2022-10-26T02:33:51.321Z,3.58
2022-10-26T02:36:25.963Z,3.80
2022-10-26T02:38:54.552Z,3.50
2022-10-26T02:41:25.922Z,3.72
2022-10-26T02:44:13.317Z,3.60
2022-10-26T02:46:41.026Z,3.53
2022-10-26T02:49:08.240Z,3.63
2022-10-26T02:52:01.381Z,3.70
2022-10-26T02:55:00.930Z,3.70
2022-10-26T02:57:40.739Z,3.45
2022-10-26T03:00:13.710Z,3.40
2022-10-26T03:02:47.616Z,3.47
2022-10-26T03:05:18.880Z,3.63
2022-10-26T03:07:46.106Z,3.50
2022-10-26T03:10:13.460Z,3.63
2022-10-26T03:12:40.717Z,3.63
2022-10-26T03:15:08.562Z,3.58
2022-10-26T03:17:35.736Z,3.75
2022-10-26T03:20:03.021Z,3.72
2022-10-26T03:22:30.135Z,3.13
2022-10-26T03:24:57.413Z,3.65
2022-10-26T03:27:24.710Z,3.47
2022-10-26T03:29:51.922Z,3.33
2022-10-26T03:32:19.169Z,2.90
2022-10-26T03:34:46.661Z,3.50
2022-10-26T03:37:14.830Z,4.25
2022-10-26T03:39:42.037Z,3.72
2022-10-26T03:42:09.287Z,3.25
2022-10-26T03:44:36.462Z,4.53
2022-10-26T03:47:03.840Z,4.00
2022-10-26T03:49:31.142Z,3.58
2022-10-26T03:51:58.484Z,3.42
2022-10-26T03:54:25.928Z,3.60
2022-10-26T03:56:55.196Z,3.08
2022-10-26T03:59:22.712Z,3.70
2022-10-26T04:01:52.752Z,4.10
2022-10-26T04:04:22.765Z,3.67
2022-10-26T04:06:50.094Z,3.63
2022-10-26T04:09:17.392Z,3.70
2022-10-26T04:11:44.630Z,3.80
2022-10-26T04:14:11.948Z,4.15
2022-10-26T04:16:39.159Z,3.80
2022-10-26T04:19:06.352Z,4.60
2022-10-26T04:21:33.799Z,4.40
2022-10-26T04:24:01.212Z,4.25
2022-10-26T04:26:28.758Z,4.25
2022-10-26T04:28:56.042Z,4.00
2022-10-26T04:31:23.262Z,4.15
2022-10-26T04:33:50.449Z,4.22
2022-10-26T04:36:17.630Z,4.53
2022-10-26T04:38:44.863Z,3.85
2022-10-26T04:41:12.184Z,3.92
2022-10-26T04:43:39.341Z,4.45
2022-10-26T04:46:06.569Z,3.83
2022-10-26T04:48:33.850Z,4.28
2022-10-26T04:51:01.535Z,4.00
2022-10-26T04:53:29.094Z,3.72
2022-10-26T04:56:00.461Z,3.85
2022-10-26T04:58:28.983Z,3.88
2022-10-26T05:00:56.608Z,3.75
2022-10-26T05:03:24.064Z,4.10
2022-10-26T05:05:51.324Z,3.88
2022-10-26T05:08:18.423Z,3.70
2022-10-26T05:10:55.522Z,3.70
2022-10-26T05:13:22.779Z,3.92
2022-10-26T05:15:54.582Z,4.53
2022-10-26T05:18:21.701Z,4.82
2022-10-26T05:20:50.563Z,3.80
2022-10-26T05:23:20.341Z,4.53
2022-10-26T05:25:48.301Z,3.43
2022-10-26T05:28:17.024Z,3.97
2022-10-26T05:30:45.541Z,3.90
2022-10-26T05:33:13.861Z,4.47
2022-10-26T05:35:41.788Z,4.18
2022-10-26T05:38:10.824Z,4.70
2022-10-26T05:40:38.148Z,4.43
2022-10-26T05:43:05.406Z,4.60
2022-10-26T05:45:32.567Z,4.50
2022-10-26T05:48:02.542Z,4.78
2022-10-26T05:50:30.630Z,4.32
2022-10-26T05:52:57.885Z,4.68
2022-10-26T05:55:25.485Z,5.15
2022-10-26T05:57:53.144Z,5.00
2022-10-26T06:00:26.021Z,4.40
2022-10-26T06:03:24.820Z,4.30
2022-10-26T06:05:57.303Z,4.40
2022-10-26T06:08:27.821Z,4.22
2022-10-26T06:10:56.865Z,4.38
2022-10-26T06:13:24.423Z,4.53
2022-10-26T06:16:18.223Z,4.93
2022-10-26T06:18:59.539Z,4.75
2022-10-26T06:21:34.741Z,5.22
2022-10-26T06:24:26.702Z,4.90
2022-10-26T06:27:18.611Z,5.05
2022-10-26T06:29:54.760Z,5.55
2022-10-26T06:32:25.180Z,4.97
2022-10-26T06:35:01.725Z,4.75
2022-10-26T06:37:32.090Z,5.75
2022-10-26T06:39:59.927Z,5.20
2022-10-26T06:42:27.318Z,5.18
2022-10-26T06:44:54.787Z,4.47
2022-10-26T06:47:31.573Z,4.75
2022-10-26T06:50:13.340Z,4.30
2022-10-26T06:53:21.873Z,5.20
2022-10-26T06:55:51.102Z,5.40
2022-10-26T06:58:20.297Z,4.90
2022-10-26T07:00:50.057Z,5.15
2022-10-26T07:03:17.597Z,4.83
2022-10-26T07:05:45.588Z,5.07
2022-10-26T07:08:13.262Z,4.97
2022-10-26T07:10:40.659Z,5.60
2022-10-26T07:13:08.689Z,5.95
2022-10-26T07:15:37.238Z,5.60
2022-10-26T07:18:06.350Z,4.80
2022-10-26T07:20:37.332Z,5.20
2022-10-26T07:23:07.173Z,5.53
2022-10-26T07:25:35.701Z,5.00
2022-10-26T07:28:02.906Z,5.00
2022-10-26T07:30:31.225Z,5.43
2022-10-26T07:33:04.806Z,5.18
2022-10-26T07:35:33.976Z,5.22
2022-10-26T07:38:02.029Z,4.88
2022-10-26T07:40:29.248Z,4.75
2022-10-26T07:43:00.394Z,4.47
2022-10-26T07:45:29.253Z,4.20
2022-10-26T07:47:57.175Z,4.00
2022-10-26T07:50:25.073Z,4.45
2022-10-26T07:52:52.710Z,3.97
2022-10-26T07:55:20.431Z,3.83
2022-10-26T07:57:49.807Z,4.07
2022-10-26T08:00:21.878Z,5.10
2022-10-26T08:02:49.188Z,4.60
2022-10-26T08:05:16.353Z,5.10
2022-10-26T08:07:46.780Z,4.57
2022-10-26T08:10:15.105Z,3.95
2022-10-26T08:12:44.956Z,4.60
2022-10-26T08:15:12.552Z,4.10
2022-10-26T08:17:39.732Z,4.20
2022-10-26T08:20:07.389Z,4.80
2022-10-26T08:22:34.565Z,4.22
2022-10-26T08:25:01.755Z,4.25
2022-10-26T08:27:28.865Z,4.18
2022-10-26T08:29:56.114Z,4.15
2022-10-26T08:32:23.255Z,4.32
2022-10-26T08:34:50.354Z,4.40
2022-10-26T08:37:17.485Z,3.88
2022-10-26T08:39:44.688Z,3.95
2022-10-26T08:42:19.746Z,4.47
2022-10-26T08:44:48.775Z,4.30
2022-10-26T08:47:25.582Z,4.25
2022-10-26T08:50:03.556Z,3.17
2022-10-26T08:52:53.181Z,3.78
2022-10-26T08:55:26.895Z,3.60
2022-10-26T08:57:55.272Z,4.30
2022-10-26T09:00:25.389Z,4.50
2022-10-26T09:02:53.973Z,3.58
2022-10-26T09:05:52.959Z,3.90
2022-10-26T09:08:47.499Z,3.38
2022-10-26T09:11:33.292Z,3.85
2022-10-26T09:14:19.754Z,3.75
2022-10-26T09:17:08.430Z,3.58
2022-10-26T09:19:38.720Z,3.50
2022-10-26T09:22:24.110Z,3.60
2022-10-26T09:24:56.474Z,3.63
2022-10-26T09:27:43.119Z,3.45
2022-10-26T09:30:23.479Z,3.30
2022-10-26T09:32:55.564Z,2.95
2022-10-26T09:35:44.583Z,3.45
2022-10-26T09:38:20.688Z,3.55
2022-10-26T09:41:01.450Z,3.75
2022-10-26T09:46:21.630Z,3.65
2022-10-26T09:48:58.537Z,3.08
2022-10-26T09:51:27.641Z,2.90
2022-10-26T09:53:57.710Z,3.20
2022-10-26T09:56:26.981Z,3.28
2022-10-26T09:59:02.448Z,3.25
2022-10-26T10:01:38.617Z,3.00
2022-10-26T10:04:12.060Z,3.10
2022-10-26T10:06:42.371Z,2.90
2022-10-26T10:09:15.084Z,2.63
2022-10-26T10:12:03.980Z,3.55
2022-10-26T10:14:40.040Z,2.78
2022-10-26T10:17:26.211Z,2.42
2022-10-26T10:19:53.544Z,3.25
2022-10-26T10:22:26.148Z,2.53
2022-10-26T10:24:58.461Z,2.08
2022-10-26T10:27:26.639Z,2.40
2022-10-26T10:30:03.015Z,2.83
2022-10-26T10:32:35.872Z,2.70
2022-10-26T10:35:29.677Z,2.50
2022-10-26T10:37:57.689Z,2.80
2022-10-26T10:40:31.505Z,2.75
2022-10-26T10:43:14.860Z,2.50
2022-10-26T10:45:46.939Z,3.15
2022-10-26T10:48:17.186Z,2.50
2022-10-26T10:50:57.129Z,3.55
2022-10-26T10:53:46.008Z,2.63
2022-10-26T10:56:34.798Z,3.10
2022-10-26T10:59:20.434Z,2.67
2022-10-26T11:01:58.395Z,2.60
2022-10-26T11:04:28.597Z,2.30
2022-10-26T11:07:00.838Z,3.08
2022-10-26T11:09:31.665Z,2.25
2022-10-26T11:12:04.539Z,2.47
2022-10-26T11:14:43.296Z,2.65
2022-10-26T11:20:02.769Z,2.80
2022-10-26T11:22:37.298Z,2.80
2022-10-26T11:25:12.118Z,2.50
2022-10-26T11:27:56.430Z,2.78
2022-10-26T11:30:27.929Z,2.63
2022-10-26T11:33:04.069Z,2.25
2022-10-26T11:36:09.290Z,2.30
2022-10-26T11:39:36.858Z,2.20
2022-10-26T11:42:17.406Z,2.75
2022-10-26T11:45:10.569Z,2.60
2022-10-26T11:47:55.330Z,2.60
2022-10-26T11:50:29.830Z,2.55
2022-10-26T11:53:17.441Z,2.50
2022-10-26T11:55:55.900Z,2.50
2022-10-26T11:58:26.771Z,2.95
2022-10-26T12:01:01.089Z,3.80
2022-10-26T12:03:33.888Z,2.67
2022-10-26T12:06:01.130Z,2.90
2022-10-26T12:08:31.240Z,2.80
2022-10-26T12:11:35.444Z,2.20
2022-10-26T12:14:18.401Z,2.42
2022-10-26T12:17:06.150Z,2.55
2022-10-26T12:19:39.080Z,2.75
2022-10-26T12:22:13.079Z,2.42
2022-10-26T12:24:45.627Z,2.80
2022-10-26T12:30:19.889Z,2.40
2022-10-26T12:32:48.827Z,2.35
2022-10-26T12:35:38.195Z,2.45
2022-10-26T12:38:24.398Z,2.55
2022-10-26T12:41:06.898Z,2.35
2022-10-26T12:43:39.400Z,2.40
2022-10-26T12:46:09.599Z,2.50
2022-10-26T12:48:44.258Z,2.45
2022-10-26T12:51:26.408Z,2.38
2022-10-26T12:54:05.021Z,2.13
2022-10-26T12:57:01.640Z,2.60
2022-10-26T12:59:31.488Z,2.40
2022-10-26T13:02:20.391Z,2.00
2022-10-26T13:05:04.983Z,2.35
2022-10-26T13:07:37.931Z,2.00
2022-10-26T13:12:53.740Z,2.00
2022-10-26T13:15:26.339Z,2.10
2022-10-26T13:18:09.142Z,2.20
2022-10-26T13:20:50.832Z,2.03
2022-10-26T13:23:26.092Z,2.00
2022-10-26T13:26:13.000Z,1.80
2022-10-26T13:28:40.380Z,1.75
2022-10-26T13:31:31.681Z,2.13
2022-10-26T13:34:01.703Z,2.00
2022-10-26T13:36:47.541Z,2.08
2022-10-26T13:39:46.039Z,2.08
2022-10-26T13:42:22.024Z,2.03
2022-10-26T13:45:03.334Z,2.10
2022-10-26T13:48:15.038Z,1.90
2022-10-26T13:50:50.141Z,2.10
2022-10-26T13:53:43.440Z,2.05
2022-10-26T13:56:22.582Z,1.83
2022-10-26T13:59:11.845Z,2.00
2022-10-26T14:01:39.730Z,2.03
2022-10-26T14:04:28.306Z,2.40
2022-10-26T14:06:56.054Z,2.20
2022-10-26T14:09:24.260Z,2.05
2022-10-26T14:11:58.579Z,2.05
2022-10-26T14:14:38.152Z,1.98
2022-10-26T14:17:05.720Z,2.55
2022-10-26T14:19:32.749Z,2.30
2022-10-26T14:22:00.848Z,1.92
2022-10-26T14:24:45.653Z,1.92
2022-10-26T14:27:22.090Z,2.20
2022-10-26T14:30:16.826Z,2.00
2022-10-26T14:32:37.858Z,1.88
2022-10-26T14:35:05.291Z,1.45
2022-10-26T14:37:59.977Z,1.80
2022-10-26T14:40:30.765Z,1.58
2022-10-26T14:43:00.400Z,1.33
2022-10-26T14:45:55.104Z,1.07
2022-10-26T14:48:32.632Z,1.80
2022-10-26T14:51:16.645Z,1.33
2022-10-26T14:53:51.135Z,1.13
2022-10-26T14:56:36.169Z,1.35
2022-10-26T14:59:26.337Z,1.50
2022-10-26T15:02:08.150Z,1.50
2022-10-26T15:04:40.550Z,1.50
2022-10-26T15:07:18.231Z,1.60
2022-10-26T15:09:47.870Z,1.75
2022-10-26T15:12:35.069Z,1.43
2022-10-26T15:17:55.862Z,1.77
2022-10-26T15:20:29.286Z,2.10
2022-10-26T15:22:57.928Z,1.52
2022-10-26T15:25:34.220Z,2.00
2022-10-26T15:28:33.561Z,1.92
2022-10-26T15:31:14.799Z,1.90
2022-10-26T15:33:44.562Z,2.00
2022-10-26T15:36:17.670Z,2.07
2022-10-26T15:38:46.218Z,1.95
2022-10-26T15:41:37.771Z,1.92
2022-10-26T15:44:18.026Z,2.00
2022-10-26T15:46:46.423Z,2.58
2022-10-26T15:49:21.439Z,1.90
2022-10-26T15:51:49.608Z,1.70
2022-10-26T15:54:16.749Z,1.50
2022-10-26T15:56:44.480Z,1.58
2022-10-26T15:59:17.135Z,1.50
2022-10-26T16:01:44.630Z,1.75
2022-10-26T16:04:12.486Z,1.90
2022-10-26T16:06:42.044Z,1.70
2022-10-26T16:09:14.594Z,1.70
2022-10-26T16:11:42.277Z,1.90
2022-10-26T16:14:11.113Z,2.03
2022-10-26T16:16:39.073Z,2.03
2022-10-26T16:19:29.254Z,1.63
2022-10-26T16:21:53.430Z,1.98
2022-10-26T16:24:20.825Z,1.80
2022-10-26T16:26:48.361Z,1.83
2022-10-26T16:29:15.515Z,1.80
2022-10-26T16:31:42.663Z,1.75
2022-10-26T16:34:09.793Z,1.75
2022-10-26T16:36:38.898Z,1.80
2022-10-26T16:39:07.188Z,1.38
2022-10-26T16:41:34.912Z,1.60
2022-10-26T16:44:02.044Z,2.00
2022-10-26T16:46:29.359Z,2.05
2022-10-26T16:48:57.062Z,1.73
2022-10-26T16:51:27.424Z,2.22
2022-10-26T16:53:57.434Z,2.17
2022-10-26T16:56:31.378Z,1.80
2022-10-26T16:58:58.785Z,1.80
2022-10-26T17:01:26.256Z,2.35
2022-10-26T17:03:53.711Z,1.90
2022-10-26T17:06:22.852Z,1.80
2022-10-26T17:08:50.144Z,2.00
2022-10-26T17:11:20.174Z,1.88
2022-10-26T17:13:49.132Z,1.73
2022-10-26T17:16:20.281Z,2.13
2022-10-26T17:18:48.752Z,1.92
2022-10-26T17:21:19.373Z,1.98
2022-10-26T17:26:15.354Z,1.80
2022-10-26T17:28:43.767Z,1.60
2022-10-26T17:31:16.125Z,1.38
2022-10-26T17:33:45.619Z,1.55
2022-10-26T17:36:16.981Z,1.52
2022-10-26T17:38:44.414Z,1.48
2022-10-26T17:41:14.221Z,1.40
2022-10-26T17:43:42.812Z,1.50
2022-10-26T17:46:16.038Z,1.50
2022-10-26T17:48:45.283Z,1.33
2022-10-26T17:51:16.670Z,1.40
2022-10-26T17:53:47.001Z,1.50
2022-10-26T17:56:18.332Z,1.60
2022-10-26T17:58:45.862Z,1.40
2022-10-26T18:01:14.216Z,1.55
2022-10-26T18:03:42.605Z,1.48
2022-10-26T18:06:09.951Z,1.45
2022-10-26T18:08:39.061Z,1.60
2022-10-26T18:11:12.014Z,1.58
2022-10-26T18:13:39.671Z,1.40
2022-10-26T18:16:09.472Z,1.42
2022-10-26T18:18:37.902Z,1.75
2022-10-26T18:21:07.715Z,1.30
2022-10-26T18:23:35.703Z,1.53
2022-10-26T18:26:21.712Z,1.55
2022-10-26T18:28:49.163Z,1.92
2022-10-26T18:31:19.634Z,1.00
2022-10-26T18:33:47.534Z,1.30
2022-10-26T18:36:17.144Z,1.60
2022-10-26T18:38:46.154Z,1.40
2022-10-26T18:41:15.495Z,1.55
2022-10-26T18:43:44.643Z,1.50
2022-10-26T18:46:19.181Z,1.13
2022-10-26T18:48:48.880Z,1.48
2022-10-26T18:51:18.632Z,1.63
2022-10-26T18:53:46.723Z,1.27
2022-10-26T18:56:16.643Z,1.20
2022-10-26T18:58:46.892Z,1.30
2022-10-26T19:01:21.654Z,1.38
2022-10-26T19:03:53.768Z,1.10
2022-10-26T19:06:27.493Z,1.05
2022-10-26T19:08:55.537Z,1.15
2022-10-26T19:11:24.644Z,1.25
2022-10-26T19:13:54.231Z,1.33
2022-10-26T19:16:44.530Z,1.30
2022-10-26T19:19:11.295Z,1.73
2022-10-26T19:21:38.444Z,1.40
2022-10-26T19:24:11.043Z,1.52
2022-10-26T19:26:42.415Z,1.20
2022-10-26T19:29:16.138Z,1.40
2022-10-26T19:31:45.498Z,1.40
2022-10-26T19:34:14.085Z,1.27
2022-10-26T19:36:45.197Z,1.63
2022-10-26T19:39:17.023Z,1.40
2022-10-26T19:41:45.701Z,1.45
2022-10-26T19:44:14.745Z,1.50
2022-10-26T19:46:43.628Z,1.50
2022-10-26T19:49:13.132Z,1.38
2022-10-26T19:51:40.675Z,1.50
2022-10-26T19:54:07.882Z,1.63
2022-10-26T19:56:36.998Z,1.88
2022-10-26T19:59:05.068Z,1.83
2022-10-26T20:01:33.107Z,1.75
2022-10-26T20:04:02.869Z,1.77
2022-10-26T20:06:31.153Z,1.42
2022-10-26T20:09:00.136Z,1.50
2022-10-26T20:11:27.421Z,1.75
2022-10-26T20:13:56.684Z,1.70
2022-10-26T20:16:23.924Z,1.40
2022-10-26T20:18:51.387Z,1.80
2022-10-26T20:21:18.602Z,1.60
2022-10-26T20:23:46.141Z,1.70
2022-10-26T20:26:19.829Z,1.70
2022-10-26T20:28:49.240Z,1.88
2022-10-26T20:31:16.799Z,1.40
2022-10-26T20:33:44.074Z,1.48
2022-10-26T20:36:11.476Z,1.80
2022-10-26T20:38:40.044Z,1.40
2022-10-26T20:41:11.738Z,1.73
2022-10-26T20:43:42.688Z,1.60
2022-10-26T20:46:23.877Z,1.80
2022-10-26T20:48:52.346Z,1.30
2022-10-26T20:52:08.592Z,1.50
2022-10-26T20:54:45.649Z,1.05
2022-10-26T20:57:18.325Z,1.58
2022-10-26T20:59:52.193Z,1.42
2022-10-26T21:02:19.437Z,1.60
2022-10-26T21:04:46.658Z,1.38
2022-10-26T21:07:13.886Z,1.60
2022-10-26T21:09:41.164Z,1.42
2022-10-26T21:12:08.402Z,1.05
2022-10-26T21:14:40.960Z,1.60
2022-10-26T21:17:08.994Z,1.60
2022-10-26T21:19:36.532Z,1.50
2022-10-26T21:22:03.872Z,1.48
2022-10-26T21:24:31.112Z,1.60
2022-10-26T21:26:58.295Z,1.40
2022-10-26T21:29:25.558Z,1.45
2022-10-26T21:31:52.740Z,1.40
2022-10-26T21:34:19.889Z,1.30
2022-10-26T21:36:47.357Z,1.55
2022-10-26T21:39:14.590Z,1.35
2022-10-26T21:41:43.578Z,1.60
2022-10-26T21:44:24.611Z,1.50
2022-10-26T21:46:57.917Z,1.40
2022-10-26T21:49:25.109Z,1.60
2022-10-26T21:51:52.202Z,1.60
2022-10-26T21:54:19.381Z,1.50
2022-10-26T21:56:46.493Z,1.40
2022-10-26T21:59:13.669Z,1.55
2022-10-26T22:01:41.142Z,1.50
2022-10-26T22:04:09.873Z,1.70
2022-10-26T22:06:37.187Z,1.90
2022-10-26T22:09:04.721Z,1.88
2022-10-26T22:11:32.046Z,2.08
2022-10-26T22:13:59.722Z,1.83
2022-10-26T22:16:29.655Z,1.98
2022-10-26T22:18:58.553Z,1.80
2022-10-26T22:21:27.366Z,1.75
2022-10-26T22:23:55.253Z,1.52
2022-10-26T22:26:24.503Z,1.50
2022-10-26T22:28:54.091Z,1.35
2022-10-26T22:31:23.882Z,1.48
2022-10-26T22:34:02.005Z,1.50
2022-10-26T22:36:32.628Z,1.42
2022-10-26T22:39:00.097Z,1.65
2022-10-26T22:41:27.354Z,1.45
2022-10-26T22:43:54.659Z,1.70
2022-10-26T22:46:24.541Z,1.50
2022-10-26T22:48:56.706Z,1.73
2022-10-26T22:51:26.081Z,1.50
2022-10-26T22:53:54.943Z,1.77
2022-10-26T22:56:23.674Z,1.40
2022-10-26T22:58:54.588Z,1.40
2022-10-26T23:01:25.220Z,1.40
2022-10-26T23:03:56.324Z,1.60
2022-10-26T23:06:25.142Z,1.60
2022-10-26T23:08:53.204Z,1.77
2022-10-26T23:11:22.661Z,1.35
2022-10-26T23:13:54.214Z,1.63
2022-10-26T23:16:21.438Z,1.60
2022-10-26T23:18:48.969Z,1.67
2022-10-26T23:21:18.061Z,1.42
2022-10-26T23:23:45.438Z,1.38
2022-10-26T23:26:15.249Z,1.30
2022-10-26T23:28:43.789Z,1.52
2022-10-26T23:31:19.688Z,1.40
2022-10-26T23:33:49.399Z,1.30
2022-10-26T23:36:16.831Z,1.30
2022-10-26T23:38:43.967Z,2.00
2022-10-26T23:41:12.965Z,1.50
2022-10-26T23:43:41.157Z,1.40
2022-10-26T23:46:08.469Z,1.90
2022-10-26T23:48:35.624Z,1.50
2022-10-26T23:51:02.923Z,1.50
2022-10-26T23:53:30.085Z,1.33
2022-10-26T23:55:57.270Z,1.48
2022-10-26T23:58:24.451Z,1.60
